Time;durP1;ratioP1;P1;durP2;ratioP2;P2;SDS_P1;SDS_P2;PMS_P1;PMS_P2;Temp;Humidity;BMP_temperature;BMP_pressure;BME280_temperature;BME280_humidity;BME280_pressure;Samples;Min_cycle;Max_cycle;Signal;HPM_P1;HPM_P2
2023/08/17 00:01:50;;;;;;;4.82;2.30;;;;;;;-148.88;100.00;-17125.47;4993962;28;20015;-74
2023/08/17 00:04:16;;;;;;;6.93;2.35;;;;;;;-148.88;100.00;-17125.47;4993880;28;20026;-74
2023/08/17 00:06:41;;;;;;;6.15;2.20;;;;;;;-148.88;100.00;-17125.47;4993646;28;20030;-73
2023/08/17 00:09:07;;;;;;;7.60;2.38;;;;;;;-148.88;100.00;-17125.47;4993787;28;20445;-73
2023/08/17 00:11:33;;;;;;;6.28;2.47;;;;;;;-148.88;100.00;-17125.47;4993957;28;20181;-74
2023/08/17 00:13:59;;;;;;;5.60;2.42;;;;;;;-148.88;100.00;-17125.47;4993780;28;20031;-73
2023/08/17 00:16:24;;;;;;;8.68;2.85;;;;;;;-148.88;100.00;-17125.47;4993712;28;20026;-74
2023/08/17 00:18:49;;;;;;;8.38;2.67;;;;;;;-148.88;100.00;-17125.47;4993848;28;20424;-74
2023/08/17 00:21:15;;;;;;;5.00;2.30;;;;;;;-148.88;100.00;-17125.47;4993505;28;20057;-74
2023/08/17 00:23:40;;;;;;;6.30;2.78;;;;;;;-148.88;100.00;-17125.47;4993703;28;20072;-74
2023/08/17 00:26:06;;;;;;;4.80;2.72;;;;;;;-148.88;100.00;-17125.47;4993513;28;20027;-74
2023/08/17 00:28:32;;;;;;;9.25;2.75;;;;;;;-148.88;100.00;-17125.47;4993526;28;20033;-73
2023/08/17 00:30:57;;;;;;;6.53;2.90;;;;;;;-148.88;100.00;-17125.47;4993596;28;20113;-74
2023/08/17 00:33:23;;;;;;;5.30;2.80;;;;;;;-148.88;100.00;-17125.47;4993485;28;20077;-74
2023/08/17 00:35:48;;;;;;;4.75;2.63;;;;;;;-148.88;100.00;-17125.47;4993043;28;20042;-73
2023/08/17 00:38:13;;;;;;;5.53;2.78;;;;;;;-148.88;100.00;-17125.47;4993436;28;20018;-73
2023/08/17 00:40:39;;;;;;;7.43;2.55;;;;;;;-148.88;100.00;-17125.47;4993536;28;20117;-74
2023/08/17 00:43:05;;;;;;;7.43;2.65;;;;;;;-148.88;100.00;-17125.47;4993552;28;20022;-73
2023/08/17 00:45:30;;;;;;;6.72;2.60;;;;;;;-148.88;100.00;-17125.47;4992770;28;20030;-73
2023/08/17 00:47:57;;;;;;;5.28;2.50;;;;;;;-148.88;100.00;-17125.47;4993966;28;20034;-73
2023/08/17 00:50:24;;;;;;;6.75;2.45;;;;;;;-148.88;100.00;-17125.47;4993704;28;20018;-74
2023/08/17 00:52:51;;;;;;;6.72;2.33;;;;;;;-148.88;100.00;-17125.47;4993337;28;20029;-73
2023/08/17 00:55:17;;;;;;;5.75;2.35;;;;;;;-148.88;100.00;-17125.47;4993455;28;20027;-73
2023/08/17 00:57:43;;;;;;;6.25;2.50;;;;;;;-148.88;100.00;-17125.47;4993341;28;20023;-73
2023/08/17 01:00:11;;;;;;;5.97;2.65;;;;;;;-148.88;100.00;-17125.47;4993316;28;20030;-74
2023/08/17 01:02:37;;;;;;;6.80;2.53;;;;;;;-148.88;100.00;-17125.47;4993389;28;20149;-73
2023/08/17 01:05:05;;;;;;;9.82;2.75;;;;;;;-148.88;100.00;-17125.47;4993322;28;20018;-74
2023/08/17 01:07:31;;;;;;;4.72;2.50;;;;;;;-148.88;100.00;-17125.47;4993457;28;20408;-74
2023/08/17 01:09:56;;;;;;;7.20;3.00;;;;;;;-148.88;100.00;-17125.47;4993325;28;20022;-74
2023/08/17 01:12:36;;;;;;;6.47;2.92;;;;;;;-148.88;100.00;-17125.47;4993216;28;20030;-73
2023/08/17 01:15:17;;;;;;;6.35;3.10;;;;;;;-148.88;100.00;-17125.47;4993247;28;20030;-74
2023/08/17 01:18:14;;;;;;;5.40;2.78;;;;;;;-148.88;100.00;-17125.47;4993157;28;20072;-74
2023/08/17 01:20:40;;;;;;;9.15;3.10;;;;;;;-148.88;100.00;-17125.47;4967732;28;20045;-74
2023/08/17 01:23:06;;;;;;;6.88;3.05;;;;;;;-148.88;100.00;-17125.47;4993179;28;20023;-74
2023/08/17 01:25:36;;;;;;;11.75;3.25;;;;;;;-148.88;100.00;-17125.47;4993217;28;20030;-74
2023/08/17 01:28:02;;;;;;;5.85;3.22;;;;;;;-148.88;100.00;-17125.47;4993062;28;20026;-74
2023/08/17 01:30:30;;;;;;;8.20;3.20;;;;;;;-148.88;100.00;-17125.47;4993040;28;20095;-74
2023/08/17 01:33:06;;;;;;;6.05;3.42;;;;;;;-148.88;100.00;-17125.47;4992918;28;20098;-74
2023/08/17 01:35:37;;;;;;;7.97;3.65;;;;;;;-148.88;100.00;-17125.47;4993015;28;20509;-74
2023/08/17 01:38:07;;;;;;;7.70;3.63;;;;;;;-148.88;100.00;-17125.47;4991644;28;20026;-74
2023/08/17 01:40:33;;;;;;;7.32;3.28;;;;;;;-148.88;100.00;-17125.47;4992842;28;20393;-74
2023/08/17 01:43:01;;;;;;;6.45;3.47;;;;;;;-148.88;100.00;-17125.47;4992971;28;20097;-74
2023/08/17 01:45:26;;;;;;;6.13;3.42;;;;;;;-148.88;100.00;-17125.47;4992898;28;20030;-74
2023/08/17 01:47:52;;;;;;;6.00;3.60;;;;;;;-148.88;100.00;-17125.47;4994603;28;20030;-74
2023/08/17 01:50:17;;;;;;;8.00;3.60;;;;;;;-148.88;100.00;-17125.47;4996413;28;20421;-74
2023/08/17 01:52:43;;;;;;;7.00;3.78;;;;;;;-148.88;100.00;-17125.47;4996470;28;20033;-74
2023/08/17 01:55:08;;;;;;;5.85;3.10;;;;;;;-148.88;100.00;-17125.47;4996269;28;20516;-74
2023/08/17 01:57:35;;;;;;;7.15;3.55;;;;;;;-148.88;100.00;-17125.47;4995143;28;20044;-74
2023/08/17 02:00:01;;;;;;;9.00;3.30;;;;;;;-148.88;100.00;-17125.47;4996148;28;20030;-74
2023/08/17 02:02:26;;;;;;;6.60;3.20;;;;;;;-148.88;100.00;-17125.47;4996148;28;20020;-74
2023/08/17 02:04:51;;;;;;;6.72;3.30;;;;;;;-148.88;100.00;-17125.47;4996345;28;20089;-74
2023/08/17 02:07:17;;;;;;;6.68;3.03;;;;;;;-148.88;100.00;-17125.47;4996065;28;20038;-74
2023/08/17 02:09:42;;;;;;;6.78;2.97;;;;;;;-148.88;100.00;-17125.47;4996042;28;20037;-74
2023/08/17 02:12:08;;;;;;;7.00;3.53;;;;;;;-148.88;100.00;-17125.47;4995935;28;20025;-74
2023/08/17 02:14:33;;;;;;;6.22;3.47;;;;;;;-148.88;100.00;-17125.47;4995935;28;20030;-74
2023/08/17 02:16:59;;;;;;;6.47;3.30;;;;;;;-148.88;100.00;-17125.47;4994539;28;20026;-73
2023/08/17 02:19:24;;;;;;;6.93;3.63;;;;;;;-148.88;100.00;-17125.47;4995797;28;20037;-74
2023/08/17 02:21:49;;;;;;;5.22;3.17;;;;;;;-148.88;100.00;-17125.47;5003674;23;20108;-89
2023/08/17 02:24:18;;;;;;;6.80;3.80;;;;;;;-148.88;100.00;-17125.47;5011093;28;20125;-89
2023/08/17 02:26:43;;;;;;;8.13;3.90;;;;;;;-148.88;100.00;-17125.47;4996528;28;20030;-88
2023/08/17 02:29:11;;;;;;;7.20;3.65;;;;;;;-148.88;100.00;-17125.47;4994783;28;20038;-89
2023/08/17 02:31:36;;;;;;;9.32;3.50;;;;;;;-148.88;100.00;-17125.47;4995840;28;20026;-89
2023/08/17 02:34:05;;;;;;;7.00;3.80;;;;;;;-148.88;100.00;-17125.47;4994640;28;20145;-89
2023/08/17 02:36:30;;;;;;;9.00;4.18;;;;;;;-148.88;100.00;-17125.47;5006958;23;20049;-84
2023/08/17 02:38:56;;;;;;;11.60;4.43;;;;;;;-148.88;100.00;-17125.47;4994794;28;20026;-85
2023/08/17 02:41:21;;;;;;;6.93;4.00;;;;;;;-148.88;100.00;-17125.47;4995009;28;20058;-84
2023/08/17 02:43:47;;;;;;;8.73;4.22;;;;;;;-148.88;100.00;-17125.47;4994834;28;20434;-85
2023/08/17 02:46:12;;;;;;;10.10;4.78;;;;;;;-148.88;100.00;-17125.47;4995224;28;20037;-85
2023/08/17 02:48:37;;;;;;;7.00;4.05;;;;;;;-148.88;100.00;-17125.47;4996386;28;20437;-85
2023/08/17 02:51:03;;;;;;;4.82;3.75;;;;;;;-148.88;100.00;-17125.47;4994935;28;20444;-84
2023/08/17 02:53:28;;;;;;;9.85;4.35;;;;;;;-148.88;100.00;-17125.47;4995063;28;20022;-84
2023/08/17 02:55:54;;;;;;;7.82;4.18;;;;;;;-148.88;100.00;-17125.47;4995615;28;20031;-84
2023/08/17 02:58:19;;;;;;;8.93;4.38;;;;;;;-148.88;100.00;-17125.47;4996994;28;20030;-84
2023/08/17 03:00:44;;;;;;;7.68;4.57;;;;;;;-148.88;100.00;-17125.47;4997264;28;20034;-83
2023/08/17 03:03:10;;;;;;;7.28;4.47;;;;;;;-148.88;100.00;-17125.47;4997037;28;20018;-83
2023/08/17 03:05:35;;;;;;;7.18;4.15;;;;;;;-148.88;100.00;-17125.47;4998071;28;20037;-83
2023/08/17 03:08:01;;;;;;;10.73;4.57;;;;;;;-148.88;100.00;-17125.47;4998286;28;20025;-83
2023/08/17 03:10:26;;;;;;;9.55;4.65;;;;;;;-148.88;100.00;-17125.47;4998408;28;20030;-83
2023/08/17 03:12:52;;;;;;;8.85;4.88;;;;;;;-148.88;100.00;-17125.47;4996446;28;20037;-83
2023/08/17 03:15:20;;;;;;;10.73;5.47;;;;;;;-148.88;100.00;-17125.47;4995428;28;20528;-84
2023/08/17 03:17:46;;;;;;;9.73;4.75;;;;;;;-148.88;100.00;-17125.47;4996539;28;20034;-84
2023/08/17 03:20:11;;;;;;;10.75;5.03;;;;;;;-148.88;100.00;-17125.47;4996949;28;20040;-83
2023/08/17 03:22:37;;;;;;;8.07;5.30;;;;;;;-148.88;100.00;-17125.47;4998637;28;20037;-83
2023/08/17 03:25:02;;;;;;;9.73;5.30;;;;;;;-148.88;100.00;-17125.47;4998611;28;20026;-83
2023/08/17 03:27:28;;;;;;;12.80;5.30;;;;;;;-148.88;100.00;-17125.47;4997523;28;20485;-83
2023/08/17 03:29:54;;;;;;;7.45;5.05;;;;;;;-148.88;100.00;-17125.47;4997970;28;20470;-83
2023/08/17 03:32:19;;;;;;;12.60;5.20;;;;;;;-148.88;100.00;-17125.47;4997577;28;20030;-83
2023/08/17 03:34:45;;;;;;;10.48;5.55;;;;;;;-148.88;100.00;-17125.47;4999087;28;20446;-83
2023/08/17 03:37:10;;;;;;;9.50;5.90;;;;;;;-148.88;100.00;-17125.47;5002635;28;20026;-83
2023/08/17 03:39:48;;;;;;;10.73;6.03;;;;;;;-148.88;100.00;-17125.47;5001612;28;20090;-83
2023/08/17 03:42:14;;;;;;;11.25;7.13;;;;;;;-148.88;100.00;-17125.47;4996629;28;20049;-84
2023/08/17 03:47:21;;;;;;;12.15;7.28;;;;;;;-148.88;100.00;-17125.47;5025351;23;20045;-78
2023/08/17 03:49:47;;;;;;;11.02;7.88;;;;;;;-148.88;100.00;-17125.47;5017892;28;20033;-78
2023/08/17 03:52:12;;;;;;;14.57;7.72;;;;;;;-148.88;100.00;-17125.47;5018067;28;20017;-77
2023/08/17 03:54:37;;;;;;;9.63;8.00;;;;;;;-148.88;100.00;-17125.47;5017646;28;20037;-77
2023/08/17 03:57:03;;;;;;;14.50;7.63;;;;;;;-148.88;100.00;-17125.47;5016879;28;20459;-78
2023/08/17 03:59:28;;;;;;;16.95;8.10;;;;;;;-148.88;100.00;-17125.47;5018024;28;20056;-77
2023/08/17 04:01:54;;;;;;;14.13;8.23;;;;;;;-148.88;100.00;-17125.47;5017761;28;20033;-77
2023/08/17 04:04:19;;;;;;;12.60;7.80;;;;;;;-148.88;100.00;-17125.47;5016789;28;20477;-77
2023/08/17 04:06:45;;;;;;;11.73;7.97;;;;;;;-148.88;100.00;-17125.47;5017380;28;20431;-77
2023/08/17 04:09:10;;;;;;;12.07;7.05;;;;;;;-148.88;100.00;-17125.47;5015309;28;20479;-77
2023/08/17 04:11:36;;;;;;;10.80;6.80;;;;;;;-148.88;100.00;-17125.47;5016371;28;20026;-80
2023/08/17 04:14:02;;;;;;;11.68;7.13;;;;;;;-148.88;100.00;-17125.47;5016673;28;20030;-77
2023/08/17 04:16:27;;;;;;;12.40;6.90;;;;;;;-148.88;100.00;-17125.47;5015347;28;20032;-77
2023/08/17 04:18:53;;;;;;;9.77;6.63;;;;;;;-148.88;100.00;-17125.47;5016396;28;20480;-78
2023/08/17 04:21:20;;;;;;;8.13;6.35;;;;;;;-148.88;100.00;-17125.47;5014796;28;20397;-77
2023/08/17 04:23:45;;;;;;;10.40;6.28;;;;;;;-148.88;100.00;-17125.47;5015111;28;20021;-78
2023/08/17 04:26:11;;;;;;;9.13;6.55;;;;;;;-148.88;100.00;-17125.47;5015737;28;20053;-76
2023/08/17 04:28:36;;;;;;;9.68;6.20;;;;;;;-148.88;100.00;-17125.47;5015024;28;20033;-77
2023/08/17 04:31:01;;;;;;;10.18;6.50;;;;;;;-148.88;100.00;-17125.47;5015290;28;20029;-77
2023/08/17 04:33:27;;;;;;;11.68;6.10;;;;;;;-148.88;100.00;-17125.47;5015078;28;20030;-76
2023/08/17 04:35:52;;;;;;;11.02;6.53;;;;;;;-148.88;100.00;-17125.47;5014522;28;20037;-77
2023/08/17 04:38:17;;;;;;;12.70;6.35;;;;;;;-148.88;100.00;-17125.47;5012914;28;20021;-77
2023/08/17 04:40:43;;;;;;;9.27;6.28;;;;;;;-148.88;100.00;-17125.47;5013743;28;20432;-76
2023/08/17 04:43:10;;;;;;;14.00;6.57;;;;;;;-148.88;100.00;-17125.47;5012252;28;20049;-77
2023/08/17 04:45:35;;;;;;;11.85;6.10;;;;;;;-148.88;100.00;-17125.47;5013675;28;20030;-77
2023/08/17 04:48:00;;;;;;;7.90;5.70;;;;;;;-148.88;100.00;-17125.47;5011981;28;20075;-77
2023/08/17 04:50:26;;;;;;;11.57;5.70;;;;;;;-148.88;100.00;-17125.47;5013285;28;20026;-77
2023/08/17 04:52:51;;;;;;;8.90;5.60;;;;;;;-148.88;100.00;-17125.47;5011958;28;20057;-77
2023/08/17 04:55:17;;;;;;;9.05;5.60;;;;;;;-148.88;100.00;-17125.47;5013067;28;20065;-76
2023/08/17 04:57:42;;;;;;;10.50;5.90;;;;;;;-148.88;100.00;-17125.47;5011763;28;20030;-78
2023/08/17 05:00:09;;;;;;;11.15;6.07;;;;;;;-148.88;100.00;-17125.47;5013017;28;20022;-76
2023/08/17 05:02:36;;;;;;;10.00;5.53;;;;;;;-148.88;100.00;-17125.47;5011745;28;20061;-76
2023/08/17 05:05:04;;;;;;;9.15;5.97;;;;;;;-148.88;100.00;-17125.47;5012098;28;20026;-77
2023/08/17 05:07:29;;;;;;;9.10;5.47;;;;;;;-148.88;100.00;-17125.47;5012656;28;20516;-76
2023/08/17 05:09:54;;;;;;;10.23;6.03;;;;;;;-148.88;100.00;-17125.47;5013866;28;20029;-76
2023/08/17 05:12:20;;;;;;;8.52;5.90;;;;;;;-148.88;100.00;-17125.47;5013475;28;20026;-77
2023/08/17 05:14:45;;;;;;;13.38;5.68;;;;;;;-148.88;100.00;-17125.47;5012151;28;20025;-77
2023/08/17 05:17:10;;;;;;;12.07;6.28;;;;;;;-148.88;100.00;-17125.47;5011915;28;20026;-76
2023/08/17 05:19:38;;;;;;;12.43;6.88;;;;;;;-148.88;100.00;-17125.47;5013153;28;20492;-77
2023/08/17 05:22:03;;;;;;;10.75;6.20;;;;;;;-148.88;100.00;-17125.47;5013872;28;20047;-77
2023/08/17 05:24:28;;;;;;;10.13;6.85;;;;;;;-148.88;100.00;-17125.47;5016747;28;20112;-76
2023/08/17 05:26:54;;;;;;;9.90;6.75;;;;;;;-148.88;100.00;-17125.47;5016605;28;20037;-76
2023/08/17 05:29:19;;;;;;;11.77;7.13;;;;;;;-148.88;100.00;-17125.47;5016894;28;20385;-76
2023/08/17 05:31:45;;;;;;;10.85;7.40;;;;;;;-148.88;100.00;-17125.47;5016355;28;20498;-76
2023/08/17 05:34:10;;;;;;;9.95;7.70;;;;;;;-148.88;100.00;-17125.47;5016485;28;20125;-76
2023/08/17 05:36:36;;;;;;;13.82;7.88;;;;;;;-148.88;100.00;-17125.47;5017056;28;20481;-77
2023/08/17 05:39:01;;;;;;;12.30;7.75;;;;;;;-148.88;100.00;-17125.47;5015355;28;20040;-76
2023/08/17 05:41:26;;;;;;;9.57;7.75;;;;;;;-148.88;100.00;-17125.47;5016866;28;20018;-76
2023/08/17 05:43:52;;;;;;;11.43;8.38;;;;;;;-148.88;100.00;-17125.47;5017492;28;20033;-76
2023/08/17 05:46:17;;;;;;;11.32;7.95;;;;;;;-148.88;100.00;-17125.47;5015765;28;20025;-77
2023/08/17 05:48:43;;;;;;;11.07;8.25;;;;;;;-148.88;100.00;-17125.47;5016766;28;20100;-76
2023/08/17 05:51:08;;;;;;;12.85;8.82;;;;;;;-148.88;100.00;-17125.47;5016736;28;20097;-76
2023/08/17 05:53:33;;;;;;;11.23;8.10;;;;;;;-148.88;100.00;-17125.47;5016794;28;20068;-77
2023/08/17 05:55:59;;;;;;;10.80;8.52;;;;;;;-148.88;100.00;-17125.47;5016835;28;20036;-77
2023/08/17 05:58:24;;;;;;;11.90;8.45;;;;;;;-148.88;100.00;-17125.47;5014757;28;20026;-77
2023/08/17 06:00:50;;;;;;;13.18;9.35;;;;;;;-148.88;100.00;-17125.47;5014997;28;20037;-77
2023/08/17 06:03:15;;;;;;;13.68;8.85;;;;;;;-148.88;100.00;-17125.47;5016778;28;20029;-77
2023/08/17 06:05:41;;;;;;;13.68;8.40;;;;;;;-148.88;100.00;-17125.47;5014912;28;20436;-76
2023/08/17 06:08:09;;;;;;;11.90;9.15;;;;;;;-148.88;100.00;-17125.47;5016425;28;20050;-77
2023/08/17 06:10:35;;;;;;;15.60;9.48;;;;;;;-148.88;100.00;-17125.47;5014901;28;20022;-76
2023/08/17 06:13:00;;;;;;;13.38;9.55;;;;;;;-148.88;100.00;-17125.47;5016039;28;20034;-77
2023/08/17 06:15:26;;;;;;;12.40;9.25;;;;;;;-148.88;100.00;-17125.47;5016279;28;20037;-77
2023/08/17 06:17:51;;;;;;;12.55;8.90;;;;;;;-148.88;100.00;-17125.47;5016617;28;20070;-76
2023/08/17 06:20:18;;;;;;;15.60;10.48;;;;;;;-148.88;100.00;-17125.47;5016173;28;20022;-76
2023/08/17 06:22:43;;;;;;;14.82;9.40;;;;;;;-148.88;100.00;-17125.47;5014331;28;20477;-76
2023/08/17 06:25:08;;;;;;;15.20;10.30;;;;;;;-148.88;100.00;-17125.47;5015476;28;20151;-76
2023/08/17 06:27:35;;;;;;;10.80;9.57;;;;;;;-148.88;100.00;-17125.47;5015227;28;20083;-75
2023/08/17 06:30:02;;;;;;;9.57;8.57;;;;;;;-148.88;100.00;-17125.47;5015190;28;20053;-76
2023/08/17 06:32:28;;;;;;;17.65;9.55;;;;;;;-148.88;100.00;-17125.47;5014586;28;20022;-76
2023/08/17 06:34:54;;;;;;;14.07;10.02;;;;;;;-148.88;100.00;-17125.47;5013576;28;20041;-76
2023/08/17 06:37:19;;;;;;;13.48;9.90;;;;;;;-148.88;100.00;-17125.47;5013782;28;20025;-76
2023/08/17 06:39:45;;;;;;;16.60;10.40;;;;;;;-148.88;100.00;-17125.47;5015088;28;20056;-77
2023/08/17 06:42:10;;;;;;;12.82;10.57;;;;;;;-148.88;100.00;-17125.47;5015113;28;20037;-77
2023/08/17 06:44:36;;;;;;;12.85;10.63;;;;;;;-148.88;100.00;-17125.47;5015071;28;20104;-77
2023/08/17 06:47:01;;;;;;;15.32;10.98;;;;;;;-148.88;100.00;-17125.47;5014799;28;20052;-77
2023/08/17 06:49:27;;;;;;;16.02;11.10;;;;;;;-148.88;100.00;-17125.47;5014967;28;20041;-77
2023/08/17 06:51:52;;;;;;;17.05;11.38;;;;;;;-148.88;100.00;-17125.47;5014821;28;20404;-76
2023/08/17 06:54:18;;;;;;;13.10;10.63;;;;;;;-148.88;100.00;-17125.47;5013571;28;20033;-77
2023/08/17 06:56:45;;;;;;;14.43;11.05;;;;;;;-148.88;100.00;-17125.47;5014801;28;20026;-77
2023/08/17 06:59:11;;;;;;;15.70;11.02;;;;;;;-148.88;100.00;-17125.47;5015125;28;20157;-76
2023/08/17 07:01:36;;;;;;;15.88;11.52;;;;;;;-148.88;100.00;-17125.47;5014808;28;20033;-77
2023/08/17 07:04:02;;;;;;;14.70;11.05;;;;;;;-148.88;100.00;-17125.47;5013343;28;20530;-77
2023/08/17 07:06:28;;;;;;;15.73;11.55;;;;;;;-148.88;100.00;-17125.47;5014854;28;20028;-77
2023/08/17 07:08:53;;;;;;;15.27;11.50;;;;;;;-148.88;100.00;-17125.47;5013235;28;20026;-77
2023/08/17 07:11:19;;;;;;;16.00;11.43;;;;;;;-148.88;100.00;-17125.47;5014934;28;20030;-77
2023/08/17 07:13:44;;;;;;;11.25;9.80;;;;;;;-148.88;100.00;-17125.47;5014432;28;20080;-77
2023/08/17 07:16:10;;;;;;;18.13;11.68;;;;;;;-148.88;100.00;-17125.47;5013180;28;20096;-77
2023/08/17 07:18:35;;;;;;;13.98;10.50;;;;;;;-148.88;100.00;-17125.47;5014295;28;20044;-77
2023/08/17 07:21:00;;;;;;;13.57;11.10;;;;;;;-148.88;100.00;-17125.47;5014354;28;20108;-77
2023/08/17 07:23:26;;;;;;;14.57;11.85;;;;;;;-148.88;100.00;-17125.47;5014374;28;20111;-79
2023/08/17 07:25:51;;;;;;;13.57;10.85;;;;;;;-148.88;100.00;-17125.47;5014346;28;20018;-77
2023/08/17 07:28:16;;;;;;;14.38;11.48;;;;;;;-148.88;100.00;-17125.47;5014346;28;20026;-77
2023/08/17 07:30:42;;;;;;;13.80;10.70;;;;;;;-148.88;100.00;-17125.47;5014544;28;20033;-77
2023/08/17 07:33:07;;;;;;;15.30;11.27;;;;;;;-148.88;100.00;-17125.47;5014165;28;20022;-77
2023/08/17 07:35:32;;;;;;;16.10;11.95;;;;;;;-148.88;100.00;-17125.47;5014380;28;20030;-77
2023/08/17 07:37:58;;;;;;;17.10;11.93;;;;;;;-148.88;100.00;-17125.47;5012694;28;20095;-77
2023/08/17 07:40:23;;;;;;;18.52;11.80;;;;;;;-148.88;100.00;-17125.47;5012720;28;20023;-77
2023/08/17 07:42:49;;;;;;;18.38;11.77;;;;;;;-148.88;100.00;-17125.47;5014037;28;20018;-77
2023/08/17 07:45:14;;;;;;;17.25;11.55;;;;;;;-148.88;100.00;-17125.47;5013949;28;20037;-77
2023/08/17 07:47:40;;;;;;;16.55;11.45;;;;;;;-148.88;100.00;-17125.47;5014219;28;20026;-77
2023/08/17 07:50:06;;;;;;;19.08;11.68;;;;;;;-148.88;100.00;-17125.47;5015743;28;20034;-77
2023/08/17 07:52:31;;;;;;;17.40;11.05;;;;;;;-148.88;100.00;-17125.47;5015110;28;20013;-77
2023/08/17 07:54:57;;;;;;;15.60;10.50;;;;;;;-148.88;100.00;-17125.47;5015877;28;20049;-77
2023/08/17 07:57:22;;;;;;;16.35;11.80;;;;;;;-148.88;100.00;-17125.47;5013701;28;20560;-77
2023/08/17 07:59:48;;;;;;;15.02;10.82;;;;;;;-148.88;100.00;-17125.47;5013695;28;20021;-77
2023/08/17 08:02:15;;;;;;;16.92;11.73;;;;;;;-148.88;100.00;-17125.47;5013633;28;20022;-77
2023/08/17 08:04:40;;;;;;;13.27;10.30;;;;;;;-148.88;100.00;-17125.47;5014036;28;20057;-77
2023/08/17 08:07:06;;;;;;;13.27;10.38;;;;;;;-148.88;100.00;-17125.47;5013427;28;20050;-77
2023/08/17 08:09:31;;;;;;;15.52;10.27;;;;;;;-148.88;100.00;-17125.47;5013907;28;20034;-77
2023/08/17 08:11:57;;;;;;;13.73;10.27;;;;;;;-148.88;100.00;-17125.47;5013706;28;20060;-75
2023/08/17 08:14:23;;;;;;;13.82;9.75;;;;;;;-148.88;100.00;-17125.47;5012169;28;20505;-77
2023/08/17 08:16:48;;;;;;;14.15;9.85;;;;;;;-148.88;100.00;-17125.47;5013288;28;20129;-77
2023/08/17 08:19:14;;;;;;;9.90;8.77;;;;;;;-148.88;100.00;-17125.47;5013377;28;20076;-77
2023/08/17 08:21:39;;;;;;;12.35;8.60;;;;;;;-148.88;100.00;-17125.47;5013676;28;20468;-77
2023/08/17 08:24:05;;;;;;;13.05;8.63;;;;;;;-148.88;100.00;-17125.47;5013246;28;20543;-77
2023/08/17 08:26:30;;;;;;;13.70;8.48;;;;;;;-148.88;100.00;-17125.47;5013440;28;20038;-77
2023/08/17 08:28:55;;;;;;;11.15;8.05;;;;;;;-148.88;100.00;-17125.47;5013122;28;20030;-77
2023/08/17 08:31:21;;;;;;;9.55;7.60;;;;;;;-148.88;100.00;-17125.47;5013244;28;20424;-77
2023/08/17 08:33:46;;;;;;;10.45;7.45;;;;;;;-148.88;100.00;-17125.47;5011873;28;20506;-77
2023/08/17 08:36:11;;;;;;;10.00;7.72;;;;;;;-148.88;100.00;-17125.47;5013177;28;20017;-77
2023/08/17 08:38:37;;;;;;;10.07;7.25;;;;;;;-148.88;100.00;-17125.47;5013199;28;20026;-77
2023/08/17 08:41:02;;;;;;;9.02;7.05;;;;;;;-148.88;100.00;-17125.47;5013197;28;20041;-77
2023/08/17 08:43:28;;;;;;;9.52;7.18;;;;;;;-148.88;100.00;-17125.47;5013401;28;20050;-77
2023/08/17 08:45:55;;;;;;;8.43;6.88;;;;;;;-148.88;100.00;-17125.47;5013079;28;20044;-77
2023/08/17 08:48:22;;;;;;;9.57;6.85;;;;;;;-148.88;100.00;-17125.47;5013964;28;20392;-76
2023/08/17 08:50:50;;;;;;;11.07;6.38;;;;;;;-148.88;100.00;-17125.47;5013144;28;20101;-77
2023/08/17 08:53:17;;;;;;;8.20;6.45;;;;;;;-148.88;100.00;-17125.47;5013101;28;20096;-77
2023/08/17 08:55:58;;;;;;;9.57;6.50;;;;;;;-148.88;100.00;-17125.47;5013267;28;20030;-77
2023/08/17 08:58:25;;;;;;;9.25;6.95;;;;;;;-148.88;100.00;-17125.47;5015621;28;20400;-77
2023/08/17 09:00:52;;;;;;;9.00;7.15;;;;;;;-148.88;100.00;-17125.47;5015679;28;20072;-77
2023/08/17 09:03:20;;;;;;;9.68;7.25;;;;;;;-148.88;100.00;-17125.47;5016914;28;20473;-77
2023/08/17 09:05:50;;;;;;;8.95;6.85;;;;;;;-148.88;100.00;-17125.47;5016812;28;20032;-77
2023/08/17 09:08:24;;;;;;;7.90;6.70;;;;;;;-148.88;100.00;-17125.47;5017029;28;20049;-76
2023/08/17 09:10:50;;;;;;;10.00;7.05;;;;;;;-148.88;100.00;-17125.47;5016910;28;20029;-77
2023/08/17 09:13:16;;;;;;;8.85;6.32;;;;;;;-148.88;100.00;-17125.47;5016975;28;20029;-78
2023/08/17 09:15:41;;;;;;;8.82;6.80;;;;;;;-148.88;100.00;-17125.47;5016989;28;20400;-77
2023/08/17 09:18:07;;;;;;;8.25;6.30;;;;;;;-148.88;100.00;-17125.47;5019169;28;20034;-78
2023/08/17 09:20:47;;;;;;;10.73;7.38;;;;;;;-148.88;100.00;-17125.47;5016506;28;20021;-78
2023/08/17 09:23:17;;;;;;;9.00;6.82;;;;;;;-148.88;100.00;-17125.47;5017608;28;20038;-77
2023/08/17 09:25:45;;;;;;;7.47;6.35;;;;;;;-148.88;100.00;-17125.47;5017451;28;20029;-77
2023/08/17 09:28:15;;;;;;;7.13;6.18;;;;;;;-148.88;100.00;-17125.47;5016768;28;20547;-75
2023/08/17 09:31:05;;;;;;;8.07;6.20;;;;;;;-148.88;100.00;-17125.47;5016650;28;20412;-76
2023/08/17 09:33:31;;;;;;;8.13;7.18;;;;;;;-148.88;100.00;-17125.47;5016351;28;20022;-77
2023/08/17 09:35:58;;;;;;;8.20;6.63;;;;;;;-148.88;100.00;-17125.47;5016786;28;20432;-77
2023/08/17 09:38:25;;;;;;;9.35;7.85;;;;;;;-148.88;100.00;-17125.47;5016188;28;20030;-77
2023/08/17 09:40:51;;;;;;;9.77;7.38;;;;;;;-148.88;100.00;-17125.47;5016674;28;20552;-81
2023/08/17 09:43:18;;;;;;;8.73;6.82;;;;;;;-148.88;100.00;-17125.47;5016510;28;20104;-77
2023/08/17 09:45:49;;;;;;;9.40;7.57;;;;;;;-148.88;100.00;-17125.47;5014715;28;20033;-77
2023/08/17 09:48:19;;;;;;;10.38;7.95;;;;;;;-148.88;100.00;-17125.47;5016258;28;20406;-77
2023/08/17 09:50:46;;;;;;;8.48;7.57;;;;;;;-148.88;100.00;-17125.47;5016012;28;20026;-77
2023/08/17 09:53:16;;;;;;;10.40;8.65;;;;;;;-148.88;100.00;-17125.47;5015881;28;20030;-77
2023/08/17 09:55:43;;;;;;;12.43;9.05;;;;;;;-148.88;100.00;-17125.47;5016096;28;20034;-77
2023/08/17 09:58:08;;;;;;;10.38;8.60;;;;;;;-148.88;100.00;-17125.47;5015850;28;20028;-77
2023/08/17 10:00:35;;;;;;;10.35;8.50;;;;;;;-148.88;100.00;-17125.47;5014815;28;20109;-77
2023/08/17 10:03:04;;;;;;;10.30;8.57;;;;;;;-148.88;100.00;-17125.47;5016524;28;20028;-77
2023/08/17 10:05:35;;;;;;;11.00;8.93;;;;;;;-148.88;100.00;-17125.47;5015842;28;20057;-76
2023/08/17 10:08:03;;;;;;;11.73;8.73;;;;;;;-148.88;100.00;-17125.47;5013191;28;20428;-77
2023/08/17 10:10:34;;;;;;;11.40;9.10;;;;;;;-148.88;100.00;-17125.47;5015864;28;20061;-76
2023/08/17 10:13:31;;;;;;;9.90;8.80;;;;;;;-148.88;100.00;-17125.47;5015551;28;20026;-77
2023/08/17 10:16:06;;;;;;;9.57;8.57;;;;;;;-148.88;100.00;-17125.47;5015822;28;20396;-77
2023/08/17 10:18:42;;;;;;;11.77;8.65;;;;;;;-148.88;100.00;-17125.47;5015407;28;20022;-77
2023/08/17 10:21:17;;;;;;;9.55;7.95;;;;;;;-148.88;100.00;-17125.47;5015477;28;20022;-77
2023/08/17 10:23:45;;;;;;;14.40;9.30;;;;;;;-148.88;100.00;-17125.47;5015422;28;20079;-77
2023/08/17 10:26:12;;;;;;;11.70;8.57;;;;;;;-148.88;100.00;-17125.47;5014109;28;20026;-77
2023/08/17 10:28:39;;;;;;;10.60;8.38;;;;;;;-148.88;100.00;-17125.47;5015234;28;20080;-77
2023/08/17 10:31:05;;;;;;;12.45;8.93;;;;;;;-148.88;100.00;-17125.47;5015255;28;20440;-77
2023/08/17 10:33:31;;;;;;;13.32;10.30;;;;;;;-148.88;100.00;-17125.47;5013956;28;20030;-76
2023/08/17 10:35:57;;;;;;;11.10;9.05;;;;;;;-148.88;100.00;-17125.47;5014016;28;20033;-77
2023/08/17 10:38:23;;;;;;;12.25;10.27;;;;;;;-148.88;100.00;-17125.47;5023738;28;20018;-75
2023/08/17 10:41:08;;;;;;;11.98;9.60;;;;;;;-148.88;100.00;-17125.47;5019640;28;20041;-75
2023/08/17 10:43:34;;;;;;;14.63;10.70;;;;;;;-148.88;100.00;-17125.47;5013869;28;20089;-76
2023/08/17 10:46:16;;;;;;;11.25;9.90;;;;;;;-148.88;100.00;-17125.47;5014906;28;20040;-77
2023/08/17 10:48:44;;;;;;;13.65;10.32;;;;;;;-148.88;100.00;-17125.47;5014812;28;20028;-77
2023/08/17 10:51:13;;;;;;;15.38;10.48;;;;;;;-148.88;100.00;-17125.47;5015881;28;20029;-77
2023/08/17 10:53:42;;;;;;;12.07;10.02;;;;;;;-148.88;100.00;-17125.47;5014779;28;20033;-77
2023/08/17 10:56:11;;;;;;;14.20;10.52;;;;;;;-148.88;100.00;-17125.47;5014792;28;20105;-77
2023/08/17 10:58:40;;;;;;;12.57;10.40;;;;;;;-148.88;100.00;-17125.47;5015852;28;20026;-78